createdAt,value
2019-04-26T00:04:57.812Z,94.80
2019-04-26T00:10:01.241Z,94.80
2019-04-26T00:15:16.414Z,95.10
2019-04-26T00:20:19.129Z,95.30
2019-04-26T00:25:20.502Z,95.30
2019-04-26T00:30:21.859Z,95.40
2019-04-26T00:35:23.266Z,95.50
2019-04-26T00:40:24.874Z,95.40
2019-04-26T00:45:31.613Z,95.50
2019-04-26T00:50:34.424Z,95.70
2019-04-26T00:55:36.729Z,95.70
2019-04-26T01:00:38.375Z,95.90
2019-04-26T01:06:00.437Z,96.00
2019-04-26T01:11:01.836Z,96.00
2019-04-26T01:16:03.173Z,96.00
2019-04-26T01:21:07.538Z,96.00
2019-04-26T01:26:14.651Z,96.20
2019-04-26T01:31:16.285Z,96.30
2019-04-26T01:36:18.053Z,96.40
2019-04-26T01:41:30.842Z,96.40
2019-04-26T01:46:42.331Z,96.40
2019-04-26T01:52:04.496Z,96.60
2019-04-26T01:57:06.219Z,96.50
2019-04-26T02:02:25.577Z,96.40
2019-04-26T02:07:37.847Z,96.50
2019-04-26T02:12:43.488Z,96.50
2019-04-26T02:17:48.338Z,96.50
2019-04-26T02:23:03.719Z,96.50
2019-04-26T02:28:05.035Z,96.40
2019-04-26T02:33:06.413Z,96.40
2019-04-26T02:38:07.726Z,96.90
2019-04-26T02:43:10.068Z,96.50
2019-04-26T02:48:29.078Z,96.50
2019-04-26T02:53:38.699Z,96.60
2019-04-26T02:58:57.778Z,96.50
2019-04-26T03:03:59.264Z,96.60
2019-04-26T03:09:06.468Z,96.70
2019-04-26T03:14:14.247Z,96.80
2019-04-26T03:19:31.458Z,96.90
2019-04-26T03:24:41.207Z,97.10
2019-04-26T03:30:21.577Z,97.00
2019-04-26T03:35:56.471Z,97.20
2019-04-26T03:41:17.899Z,97.20
2019-04-26T03:46:24.905Z,97.10
2019-04-26T03:51:52.563Z,97.10
2019-04-26T03:57:04.264Z,97.20
2019-04-26T04:02:15.577Z,97.10
2019-04-26T04:07:36.184Z,97.20
2019-04-26T04:12:38.456Z,97.30
2019-04-26T04:17:50.396Z,97.40
2019-04-26T04:23:06.489Z,97.50
2019-04-26T04:28:40.466Z,97.60
2019-04-26T04:33:57.424Z,97.50
2019-04-26T04:39:12.896Z,97.50
2019-04-26T04:44:35.815Z,97.60
2019-04-26T04:50:02.955Z,97.50
2019-04-26T04:55:57.643Z,97.60
2019-04-26T05:01:26.540Z,97.60
2019-04-26T05:07:08.651Z,97.60
2019-04-26T05:12:24.350Z,97.70
2019-04-26T05:17:53.672Z,97.90
2019-04-26T05:23:34.689Z,97.90
2019-04-26T05:29:36.891Z,98.00
2019-04-26T05:34:49.349Z,98.10
2019-04-26T05:40:15.628Z,98.10
2019-04-26T05:46:06.979Z,98.10
2019-04-26T05:52:11.078Z,97.90
2019-04-26T05:57:34.916Z,97.70
2019-04-26T06:03:11.099Z,97.70
2019-04-26T06:08:44.672Z,97.80
2019-04-26T06:14:16.595Z,97.80
2019-04-26T06:19:43.276Z,97.70
2019-04-26T06:24:58.330Z,97.60
2019-04-26T06:30:21.788Z,97.70
2019-04-26T06:35:29.213Z,98.20
2019-04-26T06:40:50.715Z,98.00
2019-04-26T06:46:08.561Z,98.00
2019-04-26T06:51:30.578Z,97.90
2019-04-26T06:56:57.443Z,97.80
2019-04-26T07:02:42.134Z,97.70
2019-04-26T07:08:24.702Z,97.50
2019-04-26T07:14:15.203Z,97.40
2019-04-26T07:19:29.900Z,97.10
2019-04-26T07:25:14.237Z,96.90
2019-04-26T07:30:41.036Z,96.70
2019-04-26T07:36:16.277Z,96.70
2019-04-26T07:42:07.379Z,96.30
2019-04-26T07:47:32.449Z,95.80
2019-04-26T07:53:20.470Z,95.40
2019-04-26T07:59:07.299Z,94.50
2019-04-26T08:04:16.411Z,94.10
2019-04-26T08:09:26.941Z,93.40
2019-04-26T08:14:34.001Z,93.10
2019-04-26T08:19:41.083Z,92.80
2019-04-26T08:24:47.721Z,92.30
2019-04-26T08:29:58.801Z,91.90
2019-04-26T08:35:15.127Z,91.80
2019-04-26T08:40:16.305Z,91.50
2019-04-26T08:45:27.224Z,91.20
2019-04-26T08:50:33.305Z,91.10
2019-04-26T08:55:37.970Z,90.70
2019-04-26T09:01:02.940Z,90.10
2019-04-26T09:06:27.525Z,89.70
2019-04-26T09:11:36.585Z,88.00
2019-04-26T09:16:49.791Z,86.80
2019-04-26T09:21:47.476Z,85.80
2019-04-26T09:26:56.853Z,84.60
2019-04-26T09:32:12.115Z,83.40
2019-04-26T09:37:13.981Z,82.90
2019-04-26T09:42:21.117Z,81.50
2019-04-26T09:47:33.987Z,81.40
2019-04-26T09:52:38.232Z,80.40
2019-04-26T09:57:40.023Z,79.80
2019-04-26T10:02:41.626Z,79.00
2019-04-26T10:07:42.979Z,78.00
2019-04-26T10:13:06.134Z,77.30
2019-04-26T10:18:08.235Z,75.60
2019-04-26T10:23:09.984Z,74.10
2019-04-26T10:28:11.743Z,72.80
2019-04-26T10:33:16.299Z,71.40
2019-04-26T10:38:19.419Z,70.20
2019-04-26T10:43:23.174Z,69.40
2019-04-26T10:48:26.394Z,70.30
2019-04-26T10:53:44.520Z,68.10
2019-04-26T10:58:49.604Z,67.50
2019-04-26T11:03:51.034Z,66.70
2019-04-26T11:08:52.685Z,66.70
2019-04-26T11:13:57.805Z,66.60
2019-04-26T11:19:01.094Z,65.10
2019-04-26T11:24:02.829Z,64.10
2019-04-26T11:29:06.060Z,63.60
2019-04-26T11:34:07.367Z,63.00
2019-04-26T11:39:10.964Z,62.00
2019-04-26T11:44:13.015Z,61.10
2019-04-26T11:49:14.461Z,61.20
2019-04-26T11:54:17.067Z,59.20
2019-04-26T11:59:19.113Z,59.30
2019-04-26T12:04:28.280Z,59.00
2019-04-26T12:09:31.539Z,59.10
2019-04-26T12:14:33.580Z,58.90
2019-04-26T12:19:35.859Z,59.10
2019-04-26T12:24:37.228Z,59.40
2019-04-26T12:29:38.549Z,59.40
2019-04-26T12:34:41.644Z,59.40
2019-04-26T12:39:42.994Z,58.30
2019-04-26T12:44:46.498Z,57.70
2019-04-26T12:49:47.892Z,57.30
2019-04-26T12:54:49.222Z,56.40
2019-04-26T12:59:50.483Z,55.00
2019-04-26T13:04:52.309Z,53.90
2019-04-26T13:10:13.898Z,54.00
2019-04-26T13:16:00.582Z,54.40
2019-04-26T13:21:02.983Z,53.90
2019-04-26T13:26:05.361Z,53.50
2019-04-26T13:31:06.664Z,53.50
2019-04-26T13:36:08.632Z,52.60
2019-04-26T13:41:11.374Z,51.90
2019-04-26T13:46:23.213Z,52.30
2019-04-26T13:51:26.490Z,52.50
2019-04-26T13:56:27.871Z,52.80
2019-04-26T14:01:29.245Z,53.10
2019-04-26T14:06:32.267Z,53.80
2019-04-26T14:11:35.167Z,53.30
2019-04-26T14:16:36.559Z,53.30
2019-04-26T14:21:41.890Z,53.00
2019-04-26T14:26:45.108Z,53.10
2019-04-26T14:31:47.319Z,53.40
2019-04-26T14:36:51.066Z,53.40
2019-04-26T14:41:57.025Z,53.00
2019-04-26T14:46:56.811Z,53.30
2019-04-26T14:51:58.374Z,52.80
2019-04-26T14:57:07.309Z,52.70
2019-04-26T15:02:10.344Z,52.50
2019-04-26T15:07:12.224Z,53.20
2019-04-26T15:12:15.779Z,53.20
2019-04-26T15:17:19.783Z,53.40
2019-04-26T15:22:20.795Z,53.30
2019-04-26T15:27:23.544Z,53.70
2019-04-26T15:32:27.990Z,53.80
2019-04-26T15:37:28.751Z,54.10
2019-04-26T15:42:32.222Z,54.10
2019-04-26T15:47:50.224Z,54.30
2019-04-26T15:52:52.517Z,54.60
2019-04-26T15:57:54.046Z,54.40
2019-04-26T16:02:58.584Z,54.20
2019-04-26T16:08:03.195Z,54.50
2019-04-26T16:13:16.139Z,54.90
2019-04-26T16:18:05.238Z,55.20
2019-04-26T16:23:07.920Z,55.10
2019-04-26T16:28:17.835Z,55.20
2019-04-26T16:33:21.064Z,55.00
2019-04-26T16:38:33.837Z,54.80
2019-04-26T16:43:40.323Z,55.00
2019-04-26T16:48:38.810Z,54.10
2019-04-26T16:58:45.553Z,54.10
2019-04-26T17:03:48.290Z,54.20
2019-04-26T17:08:57.664Z,54.30
2019-04-26T17:09:38.414Z,54.10
2019-04-26T17:13:56.727Z,55.00
2019-04-26T17:18:59.597Z,54.90
2019-04-26T17:24:13.559Z,55.20
2019-04-26T17:29:15.246Z,55.40
2019-04-26T17:34:17.247Z,56.00
2019-04-26T17:39:18.742Z,56.60
2019-04-26T17:44:26.297Z,57.30
2019-04-26T17:49:27.159Z,57.40
2019-04-26T17:54:43.766Z,57.50
2019-04-26T17:59:33.472Z,57.50
2019-04-26T18:04:37.067Z,58.00
2019-04-26T18:09:43.215Z,57.90
2019-04-26T18:14:41.432Z,58.40
2019-04-26T18:25:11.357Z,58.70
2019-04-26T18:30:13.985Z,58.80
2019-04-26T18:35:16.948Z,59.20
2019-04-26T18:40:20.760Z,59.40
2019-04-26T18:45:28.892Z,59.90
2019-04-26T18:50:32.515Z,60.70
2019-04-26T18:55:49.974Z,61.20
2019-04-26T19:00:53.008Z,62.30
2019-04-26T19:05:58.458Z,63.70
2019-04-26T19:11:03.100Z,64.80
2019-04-26T19:16:21.568Z,65.50
2019-04-26T19:21:24.990Z,66.40
2019-04-26T19:26:33.046Z,67.10
2019-04-26T19:31:30.348Z,68.10
2019-04-26T19:36:32.925Z,69.10
2019-04-26T19:41:34.605Z,69.90
2019-04-26T19:46:43.752Z,70.40
2019-04-26T19:52:03.808Z,70.90
2019-04-26T19:57:07.327Z,71.40
2019-04-26T20:02:08.982Z,71.60
2019-04-26T20:07:10.449Z,71.70
2019-04-26T20:12:13.058Z,71.60
2019-04-26T20:17:20.059Z,71.80
2019-04-26T20:22:22.051Z,71.70
2019-04-26T20:27:24.589Z,72.40
2019-04-26T20:32:32.718Z,71.10
2019-04-26T20:37:34.106Z,71.30
2019-04-26T20:42:35.403Z,71.70
2019-04-26T20:47:37.619Z,72.30
2019-04-26T20:52:38.907Z,73.00
2019-04-26T20:57:42.765Z,73.90
2019-04-26T21:02:44.149Z,74.40
2019-04-26T21:07:49.387Z,74.60
2019-04-26T21:12:52.253Z,75.30
2019-04-26T21:17:51.999Z,75.70
2019-04-26T21:28:22.282Z,77.00
2019-04-26T21:33:28.690Z,77.40
2019-04-26T21:38:38.638Z,78.00
2019-04-26T21:43:39.896Z,78.50
2019-04-26T21:48:41.938Z,78.80
2019-04-26T21:53:45.323Z,79.30
2019-04-26T21:58:47.037Z,79.60
2019-04-26T22:03:54.174Z,79.80
2019-04-26T22:08:59.329Z,80.30
2019-04-26T22:14:03.051Z,81.00
2019-04-26T22:19:06.721Z,81.60
2019-04-26T22:24:15.614Z,82.10
2019-04-26T22:29:17.185Z,82.60
2019-04-26T22:34:18.706Z,82.80
2019-04-26T22:39:20.382Z,83.30
2019-04-26T22:44:31.205Z,83.60
2019-04-26T22:49:36.830Z,84.70
2019-04-26T22:54:37.693Z,84.20
2019-04-26T22:59:43.322Z,84.80
2019-04-26T23:04:43.456Z,85.30
2019-04-26T23:09:51.908Z,85.40
2019-04-26T23:14:56.666Z,85.60
2019-04-26T23:19:59.962Z,85.80
2019-04-26T23:25:20.180Z,86.10
2019-04-26T23:30:23.086Z,86.50
2019-04-26T23:35:24.658Z,86.40
2019-04-26T23:40:28.923Z,86.90
2019-04-26T23:45:29.127Z,87.30
2019-04-26T23:50:31.328Z,87.70
2019-04-26T23:55:33.852Z,88.00
